sensor_id;sensor_type;location;lat;lon;timestamp;P1;durP1;ratioP1;P2;durP2;ratioP2
42124;SDS011;27787;44.594;11.046;2022-12-18T00:02:24;8.15;;;4.45;;
42124;SDS011;27787;44.594;11.046;2022-12-18T00:05:08;9.32;;;4.80;;
42124;SDS011;27787;44.594;11.046;2022-12-18T00:07:52;8.77;;;4.68;;
42124;SDS011;27787;44.594;11.046;2022-12-18T00:10:36;9.05;;;4.63;;
42124;SDS011;27787;44.594;11.046;2022-12-18T00:13:20;9.82;;;5.25;;
42124;SDS011;27787;44.594;11.046;2022-12-18T00:16:15;12.45;;;4.90;;
42124;SDS011;27787;44.594;11.046;2022-12-18T00:19:04;7.82;;;4.90;;
42124;SDS011;27787;44.594;11.046;2022-12-18T00:21:48;13.07;;;5.05;;
42124;SDS011;27787;44.594;11.046;2022-12-18T00:24:32;9.27;;;5.63;;
42124;SDS011;27787;44.594;11.046;2022-12-18T00:27:16;8.13;;;5.10;;
42124;SDS011;27787;44.594;11.046;2022-12-18T00:30:01;8.68;;;5.07;;
42124;SDS011;27787;44.594;11.046;2022-12-18T00:32:45;8.70;;;5.20;;
42124;SDS011;27787;44.594;11.046;2022-12-18T00:35:30;10.43;;;5.38;;
42124;SDS011;27787;44.594;11.046;2022-12-18T00:38:15;8.02;;;4.82;;
42124;SDS011;27787;44.594;11.046;2022-12-18T00:41:01;7.10;;;4.93;;
42124;SDS011;27787;44.594;11.046;2022-12-18T00:43:46;7.73;;;5.03;;
42124;SDS011;27787;44.594;11.046;2022-12-18T00:46:30;11.02;;;5.55;;
42124;SDS011;27787;44.594;11.046;2022-12-18T00:49:16;8.32;;;4.88;;
42124;SDS011;27787;44.594;11.046;2022-12-18T00:52:02;7.32;;;4.55;;
42124;SDS011;27787;44.594;11.046;2022-12-18T00:54:46;8.07;;;5.30;;
42124;SDS011;27787;44.594;11.046;2022-12-18T00:57:31;9.43;;;5.22;;
42124;SDS011;27787;44.594;11.046;2022-12-18T01:00:15;18.88;;;6.70;;
42124;SDS011;27787;44.594;11.046;2022-12-18T01:02:59;9.98;;;5.43;;
42124;SDS011;27787;44.594;11.046;2022-12-18T01:05:43;8.52;;;4.90;;
42124;SDS011;27787;44.594;11.046;2022-12-18T01:08:29;7.85;;;4.80;;
42124;SDS011;27787;44.594;11.046;2022-12-18T01:11:15;8.45;;;4.97;;
42124;SDS011;27787;44.594;11.046;2022-12-18T01:14:02;7.28;;;4.63;;
42124;SDS011;27787;44.594;11.046;2022-12-18T01:16:46;9.77;;;4.93;;
42124;SDS011;27787;44.594;11.046;2022-12-18T01:19:31;6.82;;;4.38;;
42124;SDS011;27787;44.594;11.046;2022-12-18T01:22:15;8.90;;;5.38;;
42124;SDS011;27787;44.594;11.046;2022-12-18T01:25:02;8.98;;;5.15;;
42124;SDS011;27787;44.594;11.046;2022-12-18T01:27:48;10.00;;;4.82;;
42124;SDS011;27787;44.594;11.046;2022-12-18T01:30:32;10.90;;;5.40;;
42124;SDS011;27787;44.594;11.046;2022-12-18T01:33:17;13.98;;;5.82;;
42124;SDS011;27787;44.594;11.046;2022-12-18T01:36:01;10.68;;;5.75;;
42124;SDS011;27787;44.594;11.046;2022-12-18T01:38:46;8.07;;;4.68;;
42124;SDS011;27787;44.594;11.046;2022-12-18T01:41:32;7.95;;;4.65;;
42124;SDS011;27787;44.594;11.046;2022-12-18T01:44:51;8.85;;;4.60;;
42124;SDS011;27787;44.594;11.046;2022-12-18T01:50:37;11.88;;;5.30;;
42124;SDS011;27787;44.594;11.046;2022-12-18T01:53:27;8.43;;;4.93;;
42124;SDS011;27787;44.594;11.046;2022-12-18T01:56:13;10.85;;;4.68;;
42124;SDS011;27787;44.594;11.046;2022-12-18T01:59:03;8.88;;;5.50;;
42124;SDS011;27787;44.594;11.046;2022-12-18T02:01:50;10.48;;;5.72;;
42124;SDS011;27787;44.594;11.046;2022-12-18T02:04:35;8.43;;;4.93;;
42124;SDS011;27787;44.594;11.046;2022-12-18T02:10:48;8.05;;;5.05;;
42124;SDS011;27787;44.594;11.046;2022-12-18T02:17:08;8.10;;;4.90;;
42124;SDS011;27787;44.594;11.046;2022-12-18T02:29:13;8.75;;;5.05;;
42124;SDS011;27787;44.594;11.046;2022-12-18T02:32:01;9.63;;;5.30;;
42124;SDS011;27787;44.594;11.046;2022-12-18T02:34:48;8.73;;;4.63;;
42124;SDS011;27787;44.594;11.046;2022-12-18T02:37:35;10.90;;;5.55;;
42124;SDS011;27787;44.594;11.046;2022-12-18T02:40:24;8.32;;;5.65;;
42124;SDS011;27787;44.594;11.046;2022-12-18T02:43:13;8.95;;;5.25;;
42124;SDS011;27787;44.594;11.046;2022-12-18T02:45:59;9.85;;;5.10;;
42124;SDS011;27787;44.594;11.046;2022-12-18T03:01:58;12.55;;;6.63;;
42124;SDS011;27787;44.594;11.046;2022-12-18T03:05:06;11.95;;;5.55;;
42124;SDS011;27787;44.594;11.046;2022-12-18T03:08:03;12.30;;;6.28;;
42124;SDS011;27787;44.594;11.046;2022-12-18T03:11:02;9.88;;;6.13;;
42124;SDS011;27787;44.594;11.046;2022-12-18T03:13:52;10.63;;;5.70;;
42124;SDS011;27787;44.594;11.046;2022-12-18T03:16:41;11.60;;;6.30;;
42124;SDS011;27787;44.594;11.046;2022-12-18T03:19:28;9.15;;;6.03;;
42124;SDS011;27787;44.594;11.046;2022-12-18T03:22:17;10.32;;;6.20;;
42124;SDS011;27787;44.594;11.046;2022-12-18T03:25:07;12.48;;;6.20;;
42124;SDS011;27787;44.594;11.046;2022-12-18T03:27:56;9.25;;;5.90;;
42124;SDS011;27787;44.594;11.046;2022-12-18T03:30:43;17.52;;;6.35;;
42124;SDS011;27787;44.594;11.046;2022-12-18T03:33:38;10.18;;;6.22;;
42124;SDS011;27787;44.594;11.046;2022-12-18T03:36:27;10.45;;;6.28;;
42124;SDS011;27787;44.594;11.046;2022-12-18T03:39:15;10.13;;;6.53;;
42124;SDS011;27787;44.594;11.046;2022-12-18T03:42:11;10.13;;;6.72;;
42124;SDS011;27787;44.594;11.046;2022-12-18T03:45:13;12.18;;;6.82;;
42124;SDS011;27787;44.594;11.046;2022-12-18T03:48:08;12.65;;;6.20;;
42124;SDS011;27787;44.594;11.046;2022-12-18T03:51:08;12.95;;;7.60;;
42124;SDS011;27787;44.594;11.046;2022-12-18T03:53:58;10.80;;;6.97;;
42124;SDS011;27787;44.594;11.046;2022-12-18T03:56:49;10.27;;;6.07;;
42124;SDS011;27787;44.594;11.046;2022-12-18T03:59:49;9.38;;;6.22;;
42124;SDS011;27787;44.594;11.046;2022-12-18T04:02:40;10.07;;;5.78;;
42124;SDS011;27787;44.594;11.046;2022-12-18T04:05:30;10.43;;;6.32;;
42124;SDS011;27787;44.594;11.046;2022-12-18T04:08:18;9.13;;;5.90;;
42124;SDS011;27787;44.594;11.046;2022-12-18T04:11:10;10.52;;;6.25;;
42124;SDS011;27787;44.594;11.046;2022-12-18T04:13:57;9.60;;;6.05;;
42124;SDS011;27787;44.594;11.046;2022-12-18T04:16:41;9.30;;;6.10;;
42124;SDS011;27787;44.594;11.046;2022-12-18T04:19:29;12.65;;;6.63;;
42124;SDS011;27787;44.594;11.046;2022-12-18T04:22:13;10.05;;;6.03;;
42124;SDS011;27787;44.594;11.046;2022-12-18T04:25:01;9.57;;;6.70;;
42124;SDS011;27787;44.594;11.046;2022-12-18T04:27:53;9.02;;;6.05;;
42124;SDS011;27787;44.594;11.046;2022-12-18T04:30:38;9.10;;;5.93;;
42124;SDS011;27787;44.594;11.046;2022-12-18T04:33:22;11.45;;;6.82;;
42124;SDS011;27787;44.594;11.046;2022-12-18T04:36:07;9.20;;;6.30;;
42124;SDS011;27787;44.594;11.046;2022-12-18T04:38:52;9.80;;;6.10;;
42124;SDS011;27787;44.594;11.046;2022-12-18T04:41:36;13.35;;;6.22;;
42124;SDS011;27787;44.594;11.046;2022-12-18T04:44:21;9.40;;;6.20;;
42124;SDS011;27787;44.594;11.046;2022-12-18T04:47:06;8.02;;;5.32;;
42124;SDS011;27787;44.594;11.046;2022-12-18T04:49:51;10.73;;;6.75;;
42124;SDS011;27787;44.594;11.046;2022-12-18T04:52:35;9.00;;;6.03;;
42124;SDS011;27787;44.594;11.046;2022-12-18T04:55:19;11.15;;;6.63;;
42124;SDS011;27787;44.594;11.046;2022-12-18T04:58:04;16.08;;;6.95;;
42124;SDS011;27787;44.594;11.046;2022-12-18T05:00:49;10.55;;;6.00;;
42124;SDS011;27787;44.594;11.046;2022-12-18T05:03:33;9.88;;;5.95;;
42124;SDS011;27787;44.594;11.046;2022-12-18T05:06:18;14.75;;;8.30;;
42124;SDS011;27787;44.594;11.046;2022-12-18T05:09:02;10.05;;;5.93;;
42124;SDS011;27787;44.594;11.046;2022-12-18T05:11:46;10.68;;;6.50;;
42124;SDS011;27787;44.594;11.046;2022-12-18T05:14:31;14.18;;;6.82;;
42124;SDS011;27787;44.594;11.046;2022-12-18T05:17:15;10.25;;;6.57;;
42124;SDS011;27787;44.594;11.046;2022-12-18T05:19:59;10.35;;;5.88;;
42124;SDS011;27787;44.594;11.046;2022-12-18T05:22:44;9.93;;;5.95;;
42124;SDS011;27787;44.594;11.046;2022-12-18T05:25:28;10.55;;;6.15;;
42124;SDS011;27787;44.594;11.046;2022-12-18T05:28:12;10.80;;;6.45;;
42124;SDS011;27787;44.594;11.046;2022-12-18T05:30:57;12.35;;;5.93;;
42124;SDS011;27787;44.594;11.046;2022-12-18T05:33:43;10.25;;;5.90;;
42124;SDS011;27787;44.594;11.046;2022-12-18T05:36:27;10.07;;;6.13;;
42124;SDS011;27787;44.594;11.046;2022-12-18T05:39:12;12.05;;;6.20;;
42124;SDS011;27787;44.594;11.046;2022-12-18T05:41:56;9.60;;;6.13;;
42124;SDS011;27787;44.594;11.046;2022-12-18T05:44:40;9.20;;;5.95;;
42124;SDS011;27787;44.594;11.046;2022-12-18T05:47:26;11.73;;;6.10;;
42124;SDS011;27787;44.594;11.046;2022-12-18T05:50:10;9.15;;;6.00;;
42124;SDS011;27787;44.594;11.046;2022-12-18T05:52:55;12.70;;;7.13;;
42124;SDS011;27787;44.594;11.046;2022-12-18T05:55:40;12.50;;;6.30;;
42124;SDS011;27787;44.594;11.046;2022-12-18T05:58:24;12.45;;;6.53;;
42124;SDS011;27787;44.594;11.046;2022-12-18T06:01:10;11.27;;;6.50;;
42124;SDS011;27787;44.594;11.046;2022-12-18T06:03:56;9.70;;;6.10;;
42124;SDS011;27787;44.594;11.046;2022-12-18T06:06:41;10.43;;;6.25;;
42124;SDS011;27787;44.594;11.046;2022-12-18T06:09:25;10.35;;;5.82;;
42124;SDS011;27787;44.594;11.046;2022-12-18T06:12:09;10.07;;;6.50;;
42124;SDS011;27787;44.594;11.046;2022-12-18T06:14:54;12.75;;;6.43;;
42124;SDS011;27787;44.594;11.046;2022-12-18T06:17:39;10.48;;;6.40;;
42124;SDS011;27787;44.594;11.046;2022-12-18T06:20:23;12.25;;;6.68;;
42124;SDS011;27787;44.594;11.046;2022-12-18T06:23:07;11.07;;;6.47;;
42124;SDS011;27787;44.594;11.046;2022-12-18T06:25:53;11.00;;;6.07;;
42124;SDS011;27787;44.594;11.046;2022-12-18T06:28:37;11.15;;;6.82;;
42124;SDS011;27787;44.594;11.046;2022-12-18T06:31:22;14.87;;;7.00;;
42124;SDS011;27787;44.594;11.046;2022-12-18T06:34:07;10.55;;;6.47;;
42124;SDS011;27787;44.594;11.046;2022-12-18T06:36:51;10.95;;;6.55;;
42124;SDS011;27787;44.594;11.046;2022-12-18T06:39:35;12.60;;;6.82;;
42124;SDS011;27787;44.594;11.046;2022-12-18T06:42:19;11.43;;;6.57;;
42124;SDS011;27787;44.594;11.046;2022-12-18T06:45:03;11.10;;;6.65;;
42124;SDS011;27787;44.594;11.046;2022-12-18T06:47:48;10.52;;;6.10;;
42124;SDS011;27787;44.594;11.046;2022-12-18T06:50:32;12.25;;;6.90;;
42124;SDS011;27787;44.594;11.046;2022-12-18T06:53:17;11.13;;;6.50;;
42124;SDS011;27787;44.594;11.046;2022-12-18T06:56:02;13.45;;;5.97;;
42124;SDS011;27787;44.594;11.046;2022-12-18T06:58:48;15.63;;;7.03;;
42124;SDS011;27787;44.594;11.046;2022-12-18T07:01:32;12.70;;;7.82;;
42124;SDS011;27787;44.594;11.046;2022-12-18T07:04:17;13.85;;;6.47;;
42124;SDS011;27787;44.594;11.046;2022-12-18T07:07:01;12.48;;;7.10;;
42124;SDS011;27787;44.594;11.046;2022-12-18T07:09:44;11.80;;;6.40;;
42124;SDS011;27787;44.594;11.046;2022-12-18T07:12:29;12.75;;;6.72;;
42124;SDS011;27787;44.594;11.046;2022-12-18T07:15:13;10.85;;;6.50;;
42124;SDS011;27787;44.594;11.046;2022-12-18T07:17:57;11.35;;;7.03;;
42124;SDS011;27787;44.594;11.046;2022-12-18T07:20:41;9.40;;;5.97;;
42124;SDS011;27787;44.594;11.046;2022-12-18T07:23:25;12.48;;;6.65;;
42124;SDS011;27787;44.594;11.046;2022-12-18T07:26:11;10.63;;;6.18;;
42124;SDS011;27787;44.594;11.046;2022-12-18T07:28:56;13.60;;;6.30;;
42124;SDS011;27787;44.594;11.046;2022-12-18T07:31:41;10.43;;;6.68;;
42124;SDS011;27787;44.594;11.046;2022-12-18T07:34:26;10.07;;;6.38;;
42124;SDS011;27787;44.594;11.046;2022-12-18T07:37:10;12.07;;;6.85;;
42124;SDS011;27787;44.594;11.046;2022-12-18T07:39:54;11.50;;;6.80;;
42124;SDS011;27787;44.594;11.046;2022-12-18T07:42:38;11.95;;;6.53;;
42124;SDS011;27787;44.594;11.046;2022-12-18T07:45:23;12.43;;;6.88;;
42124;SDS011;27787;44.594;11.046;2022-12-18T07:48:07;11.52;;;6.35;;
42124;SDS011;27787;44.594;11.046;2022-12-18T07:50:52;11.55;;;6.55;;
42124;SDS011;27787;44.594;11.046;2022-12-18T07:53:36;11.75;;;6.28;;
42124;SDS011;27787;44.594;11.046;2022-12-18T07:56:20;12.20;;;6.90;;
42124;SDS011;27787;44.594;11.046;2022-12-18T07:59:05;11.82;;;6.53;;
42124;SDS011;27787;44.594;11.046;2022-12-18T08:01:50;12.60;;;6.30;;
42124;SDS011;27787;44.594;11.046;2022-12-18T08:04:35;12.93;;;7.17;;
42124;SDS011;27787;44.594;11.046;2022-12-18T08:07:19;14.43;;;6.88;;
42124;SDS011;27787;44.594;11.046;2022-12-18T08:10:03;13.70;;;7.53;;
42124;SDS011;27787;44.594;11.046;2022-12-18T08:12:51;15.05;;;7.38;;
42124;SDS011;27787;44.594;11.046;2022-12-18T08:15:35;13.65;;;7.15;;
42124;SDS011;27787;44.594;11.046;2022-12-18T08:18:20;10.93;;;6.63;;
42124;SDS011;27787;44.594;11.046;2022-12-18T08:21:08;12.00;;;6.10;;
42124;SDS011;27787;44.594;11.046;2022-12-18T08:23:54;10.75;;;6.03;;
42124;SDS011;27787;44.594;11.046;2022-12-18T08:29:23;9.25;;;5.43;;
42124;SDS011;27787;44.594;11.046;2022-12-18T08:32:08;11.75;;;6.25;;
42124;SDS011;27787;44.594;11.046;2022-12-18T08:34:52;12.45;;;6.07;;
42124;SDS011;27787;44.594;11.046;2022-12-18T08:37:37;10.45;;;5.80;;
42124;SDS011;27787;44.594;11.046;2022-12-18T08:40:21;11.85;;;6.22;;
42124;SDS011;27787;44.594;11.046;2022-12-18T08:43:07;12.82;;;6.10;;
42124;SDS011;27787;44.594;11.046;2022-12-18T08:46:12;12.30;;;6.60;;
42124;SDS011;27787;44.594;11.046;2022-12-18T08:48:59;15.40;;;8.25;;
42124;SDS011;27787;44.594;11.046;2022-12-18T08:51:44;10.50;;;5.90;;
42124;SDS011;27787;44.594;11.046;2022-12-18T08:54:28;17.98;;;8.85;;
42124;SDS011;27787;44.594;11.046;2022-12-18T08:57:12;11.90;;;7.10;;
42124;SDS011;27787;44.594;11.046;2022-12-18T08:59:57;11.73;;;7.03;;
42124;SDS011;27787;44.594;11.046;2022-12-18T09:02:41;11.23;;;6.32;;
42124;SDS011;27787;44.594;11.046;2022-12-18T09:05:26;13.15;;;6.45;;
42124;SDS011;27787;44.594;11.046;2022-12-18T09:08:10;11.50;;;6.57;;
42124;SDS011;27787;44.594;11.046;2022-12-18T09:10:54;11.73;;;6.05;;
42124;SDS011;27787;44.594;11.046;2022-12-18T09:13:39;11.98;;;6.53;;
42124;SDS011;27787;44.594;11.046;2022-12-18T09:16:24;12.07;;;6.45;;
42124;SDS011;27787;44.594;11.046;2022-12-18T09:19:09;13.80;;;5.78;;
42124;SDS011;27787;44.594;11.046;2022-12-18T09:21:53;9.00;;;5.65;;
42124;SDS011;27787;44.594;11.046;2022-12-18T09:24:37;9.90;;;5.72;;
42124;SDS011;27787;44.594;11.046;2022-12-18T09:27:21;12.10;;;5.80;;
42124;SDS011;27787;44.594;11.046;2022-12-18T09:30:06;8.57;;;4.88;;
42124;SDS011;27787;44.594;11.046;2022-12-18T09:32:50;11.90;;;5.55;;
42124;SDS011;27787;44.594;11.046;2022-12-18T09:35:38;10.52;;;5.55;;
42124;SDS011;27787;44.594;11.046;2022-12-18T09:38:23;11.48;;;5.63;;
42124;SDS011;27787;44.594;11.046;2022-12-18T09:44:29;12.38;;;5.65;;
42124;SDS011;27787;44.594;11.046;2022-12-18T09:47:20;9.93;;;5.45;;
42124;SDS011;27787;44.594;11.046;2022-12-18T09:50:21;11.02;;;6.55;;
42124;SDS011;27787;44.594;11.046;2022-12-18T09:53:21;14.38;;;7.82;;
42124;SDS011;27787;44.594;11.046;2022-12-18T09:56:11;11.88;;;6.40;;
42124;SDS011;27787;44.594;11.046;2022-12-18T09:58:59;12.35;;;7.18;;
42124;SDS011;27787;44.594;11.046;2022-12-18T10:01:45;11.55;;;6.85;;
42124;SDS011;27787;44.594;11.046;2022-12-18T10:04:29;11.23;;;6.80;;
42124;SDS011;27787;44.594;11.046;2022-12-18T10:10:10;12.55;;;6.57;;
42124;SDS011;27787;44.594;11.046;2022-12-18T10:13:23;15.15;;;7.25;;
42124;SDS011;27787;44.594;11.046;2022-12-18T10:16:17;12.40;;;7.10;;
42124;SDS011;27787;44.594;11.046;2022-12-18T10:27:51;17.42;;;7.38;;
42124;SDS011;27787;44.594;11.046;2022-12-18T10:30:40;12.77;;;6.80;;
42124;SDS011;27787;44.594;11.046;2022-12-18T10:33:28;12.70;;;6.78;;
42124;SDS011;27787;44.594;11.046;2022-12-18T10:36:14;11.70;;;6.32;;
42124;SDS011;27787;44.594;11.046;2022-12-18T10:39:14;14.95;;;8.10;;
42124;SDS011;27787;44.594;11.046;2022-12-18T10:42:17;13.45;;;6.80;;
42124;SDS011;27787;44.594;11.046;2022-12-18T10:45:13;12.57;;;7.53;;
42124;SDS011;27787;44.594;11.046;2022-12-18T10:47:59;12.65;;;7.28;;
42124;SDS011;27787;44.594;11.046;2022-12-18T10:50:45;13.80;;;7.82;;
42124;SDS011;27787;44.594;11.046;2022-12-18T10:53:32;13.57;;;7.03;;
42124;SDS011;27787;44.594;11.046;2022-12-18T10:56:19;13.18;;;7.13;;
42124;SDS011;27787;44.594;11.046;2022-12-18T11:01:51;13.05;;;6.95;;
42124;SDS011;27787;44.594;11.046;2022-12-18T11:04:40;12.68;;;7.40;;
42124;SDS011;27787;44.594;11.046;2022-12-18T11:10:33;13.38;;;7.60;;
42124;SDS011;27787;44.594;11.046;2022-12-18T11:13:21;14.35;;;7.38;;
42124;SDS011;27787;44.594;11.046;2022-12-18T11:16:17;13.45;;;7.00;;
42124;SDS011;27787;44.594;11.046;2022-12-18T11:22:35;13.75;;;7.05;;
42124;SDS011;27787;44.594;11.046;2022-12-18T11:25:22;14.82;;;7.88;;
42124;SDS011;27787;44.594;11.046;2022-12-18T11:28:25;14.18;;;7.68;;
42124;SDS011;27787;44.594;11.046;2022-12-18T11:34:11;10.60;;;6.65;;
42124;SDS011;27787;44.594;11.046;2022-12-18T11:37:01;13.32;;;7.35;;
42124;SDS011;27787;44.594;11.046;2022-12-18T11:39:51;12.25;;;7.45;;
42124;SDS011;27787;44.594;11.046;2022-12-18T11:42:52;10.52;;;6.35;;
42124;SDS011;27787;44.594;11.046;2022-12-18T11:45:55;12.93;;;7.00;;
42124;SDS011;27787;44.594;11.046;2022-12-18T11:48:46;12.95;;;7.63;;
42124;SDS011;27787;44.594;11.046;2022-12-18T11:51:38;14.20;;;7.55;;
42124;SDS011;27787;44.594;11.046;2022-12-18T11:54:27;12.00;;;6.88;;
42124;SDS011;27787;44.594;11.046;2022-12-18T11:57:18;12.35;;;7.05;;
42124;SDS011;27787;44.594;11.046;2022-12-18T12:00:26;16.38;;;7.57;;
42124;SDS011;27787;44.594;11.046;2022-12-18T12:12:10;11.73;;;6.22;;
42124;SDS011;27787;44.594;11.046;2022-12-18T12:40:03;14.00;;;7.68;;
42124;SDS011;27787;44.594;11.046;2022-12-18T12:42:58;20.02;;;8.77;;
42124;SDS011;27787;44.594;11.046;2022-12-18T12:48:52;18.55;;;8.82;;
42124;SDS011;27787;44.594;11.046;2022-12-18T12:51:40;13.95;;;8.73;;
42124;SDS011;27787;44.594;11.046;2022-12-18T12:54:27;15.57;;;9.52;;
42124;SDS011;27787;44.594;11.046;2022-12-18T12:57:18;18.60;;;8.90;;
42124;SDS011;27787;44.594;11.046;2022-12-18T13:00:15;14.77;;;8.35;;
42124;SDS011;27787;44.594;11.046;2022-12-18T13:03:08;18.58;;;9.23;;
42124;SDS011;27787;44.594;11.046;2022-12-18T13:06:05;18.83;;;10.50;;
42124;SDS011;27787;44.594;11.046;2022-12-18T13:09:00;15.13;;;9.13;;
42124;SDS011;27787;44.594;11.046;2022-12-18T13:11:46;18.90;;;9.40;;
42124;SDS011;27787;44.594;11.046;2022-12-18T13:14:49;19.40;;;9.25;;
42124;SDS011;27787;44.594;11.046;2022-12-18T13:17:34;17.25;;;9.85;;
42124;SDS011;27787;44.594;11.046;2022-12-18T13:20:18;16.65;;;9.80;;
42124;SDS011;27787;44.594;11.046;2022-12-18T13:28:54;20.67;;;11.13;;
42124;SDS011;27787;44.594;11.046;2022-12-18T13:34:45;15.52;;;10.05;;
42124;SDS011;27787;44.594;11.046;2022-12-18T13:40:59;21.42;;;11.20;;
42124;SDS011;27787;44.594;11.046;2022-12-18T13:51:50;16.95;;;10.05;;
42124;SDS011;27787;44.594;11.046;2022-12-18T13:54:37;17.90;;;10.25;;
42124;SDS011;27787;44.594;11.046;2022-12-18T14:00:23;19.10;;;10.73;;
42124;SDS011;27787;44.594;11.046;2022-12-18T14:03:19;20.67;;;10.57;;
42124;SDS011;27787;44.594;11.046;2022-12-18T14:08:51;18.88;;;10.93;;
42124;SDS011;27787;44.594;11.046;2022-12-18T14:11:36;20.58;;;9.73;;
42124;SDS011;27787;44.594;11.046;2022-12-18T14:14:21;18.52;;;9.57;;
42124;SDS011;27787;44.594;11.046;2022-12-18T14:17:08;21.48;;;10.68;;
42124;SDS011;27787;44.594;11.046;2022-12-18T14:19:54;18.70;;;10.70;;
42124;SDS011;27787;44.594;11.046;2022-12-18T14:22:39;16.75;;;10.00;;
42124;SDS011;27787;44.594;11.046;2022-12-18T14:25:29;19.13;;;10.02;;
42124;SDS011;27787;44.594;11.046;2022-12-18T14:28:14;18.48;;;10.48;;
42124;SDS011;27787;44.594;11.046;2022-12-18T14:30:59;17.83;;;10.48;;
42124;SDS011;27787;44.594;11.046;2022-12-18T14:33:43;18.90;;;10.45;;
42124;SDS011;27787;44.594;11.046;2022-12-18T14:36:28;23.45;;;11.38;;
42124;SDS011;27787;44.594;11.046;2022-12-18T14:39:16;18.92;;;10.50;;
42124;SDS011;27787;44.594;11.046;2022-12-18T14:42:01;18.95;;;10.20;;
42124;SDS011;27787;44.594;11.046;2022-12-18T14:44:46;16.38;;;10.20;;
42124;SDS011;27787;44.594;11.046;2022-12-18T14:47:30;16.63;;;9.43;;
42124;SDS011;27787;44.594;11.046;2022-12-18T14:50:15;16.00;;;9.88;;
42124;SDS011;27787;44.594;11.046;2022-12-18T14:52:59;18.95;;;10.60;;
42124;SDS011;27787;44.594;11.046;2022-12-18T14:55:47;17.98;;;10.48;;
42124;SDS011;27787;44.594;11.046;2022-12-18T14:58:32;18.92;;;10.90;;
42124;SDS011;27787;44.594;11.046;2022-12-18T15:01:23;129.07;;;18.92;;
42124;SDS011;27787;44.594;11.046;2022-12-18T15:04:27;52.47;;;11.60;;
42124;SDS011;27787;44.594;11.046;2022-12-18T15:07:16;19.60;;;11.27;;
42124;SDS011;27787;44.594;11.046;2022-12-18T15:15:45;21.00;;;10.80;;
42124;SDS011;27787;44.594;11.046;2022-12-18T15:18:30;22.05;;;11.13;;
42124;SDS011;27787;44.594;11.046;2022-12-18T15:21:19;19.13;;;10.88;;
42124;SDS011;27787;44.594;11.046;2022-12-18T15:24:04;19.83;;;11.15;;
42124;SDS011;27787;44.594;11.046;2022-12-18T15:27:00;20.25;;;11.52;;
42124;SDS011;27787;44.594;11.046;2022-12-18T15:29:58;16.90;;;10.18;;
42124;SDS011;27787;44.594;11.046;2022-12-18T15:36:11;19.25;;;11.20;;
42124;SDS011;27787;44.594;11.046;2022-12-18T15:38:57;20.00;;;11.02;;
42124;SDS011;27787;44.594;11.046;2022-12-18T15:41:41;20.07;;;11.57;;
42124;SDS011;27787;44.594;11.046;2022-12-18T15:44:46;18.83;;;10.88;;
42124;SDS011;27787;44.594;11.046;2022-12-18T15:47:30;21.67;;;10.80;;
42124;SDS011;27787;44.594;11.046;2022-12-18T15:50:16;25.08;;;12.38;;
42124;SDS011;27787;44.594;11.046;2022-12-18T15:53:00;22.52;;;12.05;;
42124;SDS011;27787;44.594;11.046;2022-12-18T15:55:44;22.25;;;12.32;;
42124;SDS011;27787;44.594;11.046;2022-12-18T15:58:48;19.67;;;10.93;;
42124;SDS011;27787;44.594;11.046;2022-12-18T16:01:33;21.52;;;11.60;;
42124;SDS011;27787;44.594;11.046;2022-12-18T16:04:17;23.60;;;12.27;;
42124;SDS011;27787;44.594;11.046;2022-12-18T16:07:05;20.73;;;11.80;;
42124;SDS011;27787;44.594;11.046;2022-12-18T16:09:51;24.92;;;12.88;;
42124;SDS011;27787;44.594;11.046;2022-12-18T16:12:35;19.92;;;11.32;;
42124;SDS011;27787;44.594;11.046;2022-12-18T16:15:19;25.33;;;12.95;;
42124;SDS011;27787;44.594;11.046;2022-12-18T16:18:05;24.40;;;13.38;;
42124;SDS011;27787;44.594;11.046;2022-12-18T16:20:48;23.10;;;12.45;;
42124;SDS011;27787;44.594;11.046;2022-12-18T16:23:33;19.88;;;11.52;;
42124;SDS011;27787;44.594;11.046;2022-12-18T16:26:17;36.95;;;17.60;;
42124;SDS011;27787;44.594;11.046;2022-12-18T16:29:03;30.85;;;16.13;;
42124;SDS011;27787;44.594;11.046;2022-12-18T16:34:32;30.45;;;16.35;;
42124;SDS011;27787;44.594;11.046;2022-12-18T16:37:18;28.10;;;13.60;;
42124;SDS011;27787;44.594;11.046;2022-12-18T16:40:02;30.48;;;14.30;;
42124;SDS011;27787;44.594;11.046;2022-12-18T16:42:47;33.00;;;15.13;;
42124;SDS011;27787;44.594;11.046;2022-12-18T16:45:31;32.40;;;15.60;;
42124;SDS011;27787;44.594;11.046;2022-12-18T16:51:01;26.73;;;14.10;;
42124;SDS011;27787;44.594;11.046;2022-12-18T16:53:47;25.63;;;13.55;;
42124;SDS011;27787;44.594;11.046;2022-12-18T16:56:31;29.38;;;16.63;;
42124;SDS011;27787;44.594;11.046;2022-12-18T16:59:16;36.85;;;19.38;;
42124;SDS011;27787;44.594;11.046;2022-12-18T17:02:01;32.17;;;14.77;;
42124;SDS011;27787;44.594;11.046;2022-12-18T17:04:46;36.60;;;17.10;;
42124;SDS011;27787;44.594;11.046;2022-12-18T17:07:30;30.08;;;16.90;;
42124;SDS011;27787;44.594;11.046;2022-12-18T17:10:15;39.92;;;21.63;;
42124;SDS011;27787;44.594;11.046;2022-12-18T17:12:59;39.58;;;22.23;;
42124;SDS011;27787;44.594;11.046;2022-12-18T17:15:44;46.25;;;27.92;;
42124;SDS011;27787;44.594;11.046;2022-12-18T17:18:28;33.83;;;18.55;;
42124;SDS011;27787;44.594;11.046;2022-12-18T17:21:12;34.15;;;17.80;;
42124;SDS011;27787;44.594;11.046;2022-12-18T17:24:00;31.40;;;16.17;;
42124;SDS011;27787;44.594;11.046;2022-12-18T17:26:45;34.47;;;18.00;;
42124;SDS011;27787;44.594;11.046;2022-12-18T17:29:31;31.85;;;15.73;;
42124;SDS011;27787;44.594;11.046;2022-12-18T17:32:15;31.30;;;16.17;;
42124;SDS011;27787;44.594;11.046;2022-12-18T17:35:00;30.85;;;15.85;;
42124;SDS011;27787;44.594;11.046;2022-12-18T17:37:45;37.15;;;17.63;;
42124;SDS011;27787;44.594;11.046;2022-12-18T17:40:31;36.38;;;18.73;;
42124;SDS011;27787;44.594;11.046;2022-12-18T17:43:15;37.00;;;17.40;;
42124;SDS011;27787;44.594;11.046;2022-12-18T17:46:03;32.63;;;17.13;;
42124;SDS011;27787;44.594;11.046;2022-12-18T17:48:49;31.45;;;16.55;;
42124;SDS011;27787;44.594;11.046;2022-12-18T17:51:33;29.85;;;14.25;;
42124;SDS011;27787;44.594;11.046;2022-12-18T17:54:17;29.48;;;14.93;;
42124;SDS011;27787;44.594;11.046;2022-12-18T17:57:01;31.83;;;14.93;;
42124;SDS011;27787;44.594;11.046;2022-12-18T17:59:46;27.30;;;14.63;;
42124;SDS011;27787;44.594;11.046;2022-12-18T18:02:30;30.75;;;15.57;;
42124;SDS011;27787;44.594;11.046;2022-12-18T18:05:14;31.30;;;16.30;;
42124;SDS011;27787;44.594;11.046;2022-12-18T18:07:59;34.80;;;18.20;;
42124;SDS011;27787;44.594;11.046;2022-12-18T18:10:44;31.65;;;16.83;;
42124;SDS011;27787;44.594;11.046;2022-12-18T18:13:31;33.47;;;17.02;;
42124;SDS011;27787;44.594;11.046;2022-12-18T18:16:45;34.58;;;17.35;;
42124;SDS011;27787;44.594;11.046;2022-12-18T18:19:32;33.58;;;17.58;;
42124;SDS011;27787;44.594;11.046;2022-12-18T18:22:16;35.47;;;18.90;;
42124;SDS011;27787;44.594;11.046;2022-12-18T18:25:03;38.50;;;17.83;;
42124;SDS011;27787;44.594;11.046;2022-12-18T18:27:47;32.70;;;17.45;;
42124;SDS011;27787;44.594;11.046;2022-12-18T18:30:31;36.20;;;18.45;;
42124;SDS011;27787;44.594;11.046;2022-12-18T18:33:16;39.85;;;18.55;;
42124;SDS011;27787;44.594;11.046;2022-12-18T18:36:00;37.10;;;19.65;;
42124;SDS011;27787;44.594;11.046;2022-12-18T18:38:46;42.30;;;20.38;;